LTBU Airport Information

Runway Information
Runway 05 Length 9844 ft width 148 ft
Elevation 500 ft Threshold 0 ft Heading 49
Runway 23 Length 9844 ft Width 148 ft
Elevation 574 ft Threshold 0 ft Heading 229
Airport Frequencies
Type APP Name YESILKOY A Frequency 120.5 MHZ
Type GND Name GND Frequency 121.9 MHZ
Type TWR Name TWR Frequency 120.375 MHZ
Airport Navaids
Type TACAN Name Corlu Frequency 115900 KHZ
Type VOR-DME Name Corlu Frequency 114800 KHZ
Type NDB Name Corlu Frequency 426 KHZ
Airport Weather Information & NOTAM
ADDS - METARS form results

(2023 UTC 16 July 2018)
 
METAR text: LTBU 161950Z 07005KT CAVOK 23/15 Q1011 RMK RWY23 11003KT
Conditions at: LTBU (CORLU , TR) observed 1950 UTC 16 July 2018
Temperature: 23.0°C (73°F)
Dewpoint: 15.0°C (59°F) [RH = 61%]
Pressure (altimeter): 29.85 inches Hg (1011.0 mb)
Winds: from the ENE (70 degrees) at 6 MPH (5 knots; 2.6 m/s)
Visibility: 6 or more miles (10+ km)
Ceiling: ceiling and visibility are OK
Clouds: unknown
Weather: no significant weather observed at this time